createdAt,value
2022-08-12T00:06:48.417Z,10
2022-08-12T00:35:44.582Z,10
2022-08-12T01:04:35.619Z,7
2022-08-12T01:33:21.085Z,7
2022-08-12T02:01:34.094Z,7
2022-08-12T02:29:51.296Z,8
2022-08-12T02:58:46.274Z,10
2022-08-12T03:26:54.344Z,8
2022-08-12T03:54:58.463Z,10
2022-08-12T04:23:21.225Z,8
2022-08-12T04:51:41.531Z,11
2022-08-12T05:20:03.293Z,13
2022-08-12T05:48:23.214Z,11
2022-08-12T06:17:40.561Z,10
2022-08-12T06:46:39.098Z,11
2022-08-12T07:15:05.083Z,10
2022-08-12T07:43:31.008Z,8
2022-08-12T08:11:52.444Z,8
2022-08-12T08:40:24.847Z,11
2022-08-12T09:08:48.790Z,7
2022-08-12T09:37:19.043Z,4
2022-08-12T10:06:11.975Z,5
2022-08-12T10:34:06.315Z,5
2022-08-12T11:04:21.662Z,4
2022-08-12T11:31:06.292Z,5
2022-08-12T12:28:04.279Z,4
2022-08-12T12:56:15.202Z,4
2022-08-12T13:25:04.696Z,4
2022-08-12T13:53:55.110Z,5
2022-08-12T14:22:13.471Z,4
2022-08-12T14:51:09.324Z,4
2022-08-12T15:20:12.196Z,4
2022-08-12T15:48:04.780Z,4
2022-08-12T16:16:32.006Z,4
2022-08-12T16:45:06.523Z,4
2022-08-12T17:13:34.113Z,4
2022-08-12T17:42:03.232Z,4
2022-08-12T18:10:29.121Z,4
2022-08-12T18:39:25.532Z,4
2022-08-12T19:07:58.246Z,5
2022-08-12T19:36:24.878Z,8
2022-08-12T20:04:49.231Z,5
2022-08-12T20:33:23.183Z,5
2022-08-12T21:01:56.297Z,5
2022-08-12T21:30:14.517Z,5
2022-08-12T21:58:17.665Z,6
2022-08-12T22:26:46.292Z,6
2022-08-12T22:55:09.105Z,5
2022-08-12T23:23:28.232Z,4
2022-08-12T23:51:35.009Z,4
